Flight Track Log - Related Links

Times and Time Zones

All times are in EDT time to prevent confusion due to time zone crossing. See the SKW6345 flight status page for this flight to view local times or setup timezone preferences in your user account.

Time Position Orientation Groundspeed Altitude Reporting Facility
EDT Latitude Longitude Course Direction KTS MPH feet Rate Location/Type
Thu 02:28:49 PM 44.4594 -108.9494 157° South 252 290 11,800  Level Salt Lake Center
Thu 02:29:00 PM 44.3723 -108.8204 154° Southeast  Level FlightAware Approximate
Thu 02:29:50 PM 44.4161 -108.8497 121° Southeast 298 343 14,100  Level Salt Lake Center
Thu 02:30:00 PM 44.2598 -108.7460 158° South  Level FlightAware Approximate
Thu 02:30:52 PM 44.3142 -108.7903 157° South 342 394 16,000  Level Salt Lake Center
Thu 02:31:00 PM 44.1445 -108.6803 159° South  Level FlightAware Approximate
Thu 02:31:56 PM 44.2197 -108.7356 157° South 364 419 17,600  Level Salt Lake Center
Thu 02:32:00 PM 44.0286 -108.6171 159° South  Level FlightAware Approximate
Thu 02:32:56 PM 44.1192 -108.6792 158° South 385 443 18,800  Level Salt Lake Center
Thu 02:33:00 PM 43.9132 -108.5521 157° South  Level FlightAware Approximate
Thu 02:33:58 PM 43.9978 -108.6089 157° South 406 467 20,100  Level Salt Lake Center
Thu 02:34:00 PM 43.8082 -108.4908 157° South  Level FlightAware Approximate
Thu 02:34:59 PM 43.8900 -108.5461 157° South 426 490 21,500  Level Salt Lake Center
Thu 02:36:01 PM 43.7589 -108.4697 157° South 452 520 22,700 1,258 Climbing Salt Lake Center
Thu 02:37:03 PM 43.6467 -108.4053 157° South 456 525 24,100 1,210 Climbing Salt Lake Center
Thu 02:38:05 PM 43.5144 -108.3322 158° South 459 528 25,200 878 Climbing Salt Lake Center
Thu 02:39:06 PM 43.4072 -108.2450 149° Southeast 467 537 25,900 732 Climbing Salt Lake Center
Thu 02:40:08 PM 43.2908 -108.1178 141° Southeast 479 551 26,700 823 Climbing Salt Lake Center
Thu 02:41:10 PM 43.1889 -108.0114 143° Southeast 481 554 27,600 1,113 Climbing Salt Lake Center
Thu 02:42:12 PM 43.0719 -107.8872 142° Southeast 479 551 29,000 1,220 Climbing Salt Lake Center
Thu 02:43:13 PM 42.9736 -107.7833 142° Southeast 471 542 30,100 927 Climbing Salt Lake Center
Thu 02:44:15 PM 42.8647 -107.6692 142° Southeast 468 539 30,900 435 Climbing Salt Lake Center
Thu 02:45:17 PM 42.7636 -107.5653 143° Southeast 476 548 31,000 48 Climbing Salt Lake Center
Thu 02:46:19 PM 42.6403 -107.4367 142° Southeast 497 572 31,000  Level Salt Lake Center
Thu 02:47:09 PM 42.5500 -107.3425 142° Southeast 509 586 31,000  Level Denver Center
Thu 02:48:11 PM 42.4394 -107.2289 143° Southeast 520 598 31,000  Level Denver Center
Thu 02:49:13 PM 42.3125 -107.0989 143° Southeast 514 592 31,000  Level Denver Center
Thu 02:50:15 PM 42.2053 -106.9900 143° Southeast 507 583 31,000  Level Denver Center
Thu 02:51:16 PM 42.0808 -106.8644 143° Southeast 501 577 31,000  Level Denver Center
Thu 02:52:18 PM 41.9711 -106.7550 143° Southeast 508 585 31,000  Level Denver Center
Thu 02:53:20 PM 41.8642 -106.6475 143° Southeast 504 580 31,000  Level Denver Center
Thu 02:54:22 PM 41.7406 -106.5164 142° Southeast 506 582 31,000  Level Denver Center
Thu 02:55:24 PM 41.6308 -106.4006 142° Southeast 507 583 31,000  Level Denver Center
Thu 02:56:25 PM 41.5042 -106.2678 142° Southeast 516 594 31,000  Level Denver Center
Thu 02:57:27 PM 41.3964 -106.1553 142° Southeast 515 593 31,000  Level Denver Center
Thu 02:58:29 PM 41.2728 -106.0292 143° Southeast 505 581 31,000  Level Denver Center
Thu 02:59:31 PM 41.1683 -105.9208 142° Southeast 500 575 31,000 -244 Level Denver Center
Thu 03:00:32 PM 41.0625 -105.8133 143° Southeast 500 575 30,500 -1,268 Descending Denver Center
Thu 03:01:34 PM 40.9433 -105.6917 142° Southeast 488 562 28,400 -1,935 Descending Denver Center
Thu 03:02:36 PM 40.8383 -105.5875 143° Southeast 493 567 26,500 -1,790 Descending Denver Center
Thu 03:03:38 PM 40.7275 -105.4731 142° Southeast 490 564 24,700 -1,610 Descending Denver Center
Thu 03:04:39 PM 40.6161 -105.3606 143° Southeast 486 559 23,200 -1,244 Descending Denver Center
Thu 03:05:53 PM 40.5072 -105.2492 142° Southeast 457 526 21,900 -1,588 Descending Denver Center
Thu 03:06:55 PM 40.3972 -105.1589 148° Southeast 392 451 19,600 -1,790 Descending Denver Center
Thu 03:07:57 PM 40.3069 -105.0894 150° Southeast 379 436 18,200 -1,742 Descending Denver Center
Thu 03:08:59 PM 40.2186 -105.0153 147° Southeast 351 404 16,000 -1,548 Descending Denver Center
Thu 03:10:01 PM 40.1397 -104.9539 149° Southeast 333 383 15,000 -976 Descending Denver Center
Thu 03:11:02 PM 40.0622 -104.8925 149° Southeast 328 377 14,000 -1,024 Descending Denver Center
Thu 03:12:04 PM 39.9850 -104.8303 148° Southeast 306 352 12,900 -919 Descending Denver Center
Thu 03:13:06 PM 39.9278 -104.8053 161° South 271 312 12,100 -677 Descending Denver Center
Thu 03:14:08 PM 39.8425 -104.8089 182° South 255 293 11,500 -629 Descending Denver Center
Thu 03:15:10 PM 39.7719 -104.8094 180° South 256 295 10,800 -683 Descending Denver Center
Thu 03:16:11 PM 39.7008 -104.7972 172° South 249 287 10,100 -878 Descending Denver Center
Thu 03:17:13 PM 39.7214 -104.7386 65° Northeast 205 236 9,000 -1,065 Descending Denver Center

Login

Don't have an account? Register now (free) for customized features, flight alerts, and more!